EDT,Max TemperatureF,Mean TemperatureF,Min TemperatureF,Max Dew PointF,MeanDew PointF,Min DewpointF,Max Humidity, Mean Humidity, Min Humidity, Max Sea Level PressureIn, Mean Sea Level PressureIn, Min Sea Level PressureIn, Max VisibilityMiles, Mean VisibilityMiles, Min VisibilityMiles, Max Wind SpeedMPH, Mean Wind SpeedMPH, Max Gust SpeedMPH,PrecipitationIn, CloudCover, Events, WindDirDegrees
2013-3-1,44,37,30,30,26,23,93,63,49,29.68,29.63,29.55,10,10,10,17,8,25,0.00,6,,330
2013-3-2,39,36,32,25,23,21,70,60,52,29.68,29.66,29.63,10,10,10,13,7,16,0.00,8,,308
2013-3-3,41,36,30,27,23,19,86,66,52,29.64,29.61,29.56,10,9,3,10,7,16,0.00,6,,299
2013-3-4,37,32,26,23,19,16,75,58,45,29.74,29.65,29.60,10,10,10,20,13,30,0.00,3,,301
2013-3-5,44,36,28,28,23,18,81,62,46,30.06,29.93,29.75,10,10,10,15,9,21,0.00,6,,356
2013-3-6,39,36,33,32,29,27,87,79,65,30.06,30.02,29.99,10,8,3,23,11,36,0.03,8,,52
2013-3-7,33,32,30,28,26,25,93,82,75,29.99,29.97,29.94,10,3,1,28,22,40,0.00,8,,14
2013-3-8,37,32,28,30,25,19,93,78,52,30.12,29.98,29.90,10,4,0,24,18,32,0.00,6,,10
2013-3-9,42,35,28,25,21,16,86,59,46,30.33,30.22,30.12,10,10,10,21,14,28,0.00,0,,19
2013-3-10,,,,,,,,,,,,,,,,,,,0.00,,,-1
2013-3-11,50,50,48,37,37,37,66,64,62,30.21,30.20,30.20,10,10,10,8,7,16,0.00,0,,145
2013-3-12,,,,,,,,,,,,,,,,,,,,,,
2013-3-13,48,39,30,30,24,16,75,49,34,29.79,29.76,29.72,10,10,10,18,10,24,0.00,0,,292
2013-3-14,33,27,21,21,12,3,69,48,35,29.84,29.78,29.72,10,10,10,23,10,33,0.00,4,,291
2013-3-15,39,29,19,25,12,3,75,48,26,29.87,29.77,29.66,10,10,10,21,9,26,0.00,1,,271
2013-3-16,37,32,26,21,12,7,74,44,28,29.86,29.80,29.70,10,10,10,12,6,22,0.00,2,,285
2013-3-17,37,29,21,16,8,1,74,42,24,30.29,30.04,29.86,10,10,10,18,7,25,0.00,0,,314
2013-3-18,35,26,17,23,7,0,80,44,26,30.44,30.34,30.20,10,10,1,12,7,16,0.00,1,,81
2013-3-19,35,32,28,34,28,23,93,84,80,30.18,29.81,29.59,10,4,0,23,11,30,0.76,8,,37
2013-3-20,37,32,26,25,17,12,86,58,41,29.81,29.76,29.69,10,10,10,20,9,31,0.00,3,,276
2013-3-21,33,28,24,25,20,16,80,66,55,29.82,29.70,29.60,10,10,3,14,4,,0.00,4,,346
2013-3-22,39,32,24,19,16,12,64,51,39,29.76,29.67,29.61,10,10,10,17,10,25,0.00,2,,289
2013-3-23,41,34,28,21,17,14,69,50,36,29.81,29.73,29.68,10,10,10,24,14,32,0.00,2,,282
2013-3-24,46,37,28,23,19,16,69,50,34,29.84,29.79,29.73,10,10,10,15,9,23,0.00,1,,308
2013-3-25,44,37,30,30,25,21,81,66,42,29.76,29.61,29.49,10,10,1,18,7,30,0.03,5,,39
2013-3-26,44,38,33,28,22,18,81,55,37,29.79,29.67,29.52,10,10,10,18,10,23,0.00,5,,315
2013-3-27,51,40,28,27,20,16,64,45,30,29.87,29.80,29.76,10,10,10,16,8,23,0.00,2,,301
2013-3-28,46,40,35,32,28,25,81,63,43,30.03,29.94,29.87,10,10,10,16,8,21,0.00,6,,351
2013-3-29,55,45,35,30,27,25,75,50,31,30.06,30.03,29.98,10,10,10,15,8,20,0.00,3,,299
2013-3-30,55,46,37,28,24,16,65,45,21,30.09,30.06,30.02,10,10,10,13,8,22,0.00,1,,311
2013-3-31,,,,,,,,,,,,,,,,,,,,,,